createdAt,value
2023-05-01T00:01:29.354Z,96204.63
2023-05-01T00:04:14.869Z,96206.91
2023-05-01T00:07:00.314Z,96210.19
2023-05-01T00:09:46.024Z,96214.59
2023-05-01T00:12:31.346Z,96216.38
2023-05-01T00:15:17.236Z,96215.25
2023-05-01T00:18:02.565Z,96211.44
2023-05-01T00:20:48.351Z,96211.44
2023-05-01T00:23:33.861Z,96215.06
2023-05-01T00:26:19.015Z,96207.97
2023-05-01T00:29:04.295Z,96214.66
2023-05-01T00:31:49.636Z,96213.34
2023-05-01T00:34:35.313Z,96212.50
2023-05-01T00:37:20.536Z,96215.44
2023-05-01T00:40:06.935Z,96215.72
2023-05-01T00:42:52.492Z,96214.25
2023-05-01T00:45:38.663Z,96212.31
2023-05-01T00:48:24.246Z,96214.56
2023-05-01T00:51:09.875Z,96213.41
2023-05-01T00:53:56.642Z,96214.22
2023-05-01T00:56:41.948Z,96215.50
2023-05-01T00:59:27.084Z,96212.84
2023-05-01T01:02:15.777Z,96222.78
2023-05-01T01:05:01.019Z,96228.34
2023-05-01T01:07:54.690Z,96223.22
2023-05-01T01:11:05.952Z,96228.09
2023-05-01T01:14:00.116Z,96238.88
2023-05-01T01:17:07.202Z,96238.88
2023-05-01T01:20:11.268Z,96233.22
2023-05-01T01:23:13.981Z,96239.09
2023-05-01T01:26:24.042Z,96234.69
2023-05-01T01:29:30.968Z,96239.19
2023-05-01T01:32:56.672Z,96243.72
2023-05-01T01:35:46.969Z,96235.66
2023-05-01T01:38:44.170Z,96236.41
2023-05-01T01:41:34.745Z,96238.34
2023-05-01T01:44:24.463Z,96240.81
2023-05-01T01:47:13.989Z,96240.00
2023-05-01T01:50:04.381Z,96236.41
2023-05-01T01:52:51.908Z,96235.28
2023-05-01T01:55:39.608Z,96241.94
2023-05-01T01:58:26.923Z,96235.88
2023-05-01T02:01:15.834Z,96245.22
2023-05-01T02:04:03.577Z,96237.53
2023-05-01T02:06:50.007Z,96235.66
2023-05-01T02:09:36.488Z,96239.25
2023-05-01T02:12:26.810Z,96227.81
2023-05-01T02:15:13.181Z,96227.97
2023-05-01T02:18:01.951Z,96226.63
2023-05-01T02:20:48.393Z,96231.63
2023-05-01T02:23:34.212Z,96229.31
2023-05-01T02:26:26.418Z,96226.03
2023-05-01T02:29:11.792Z,96231.88
2023-05-01T02:31:57.454Z,96216.63
2023-05-01T02:34:42.521Z,96213.94
2023-05-01T02:37:28.364Z,96218.84
2023-05-01T02:40:16.894Z,96212.31
2023-05-01T02:43:07.126Z,96215.06
2023-05-01T02:45:53.872Z,96211.47
2023-05-01T02:48:40.527Z,96211.78
2023-05-01T02:51:27.840Z,96208.50
2023-05-01T02:54:13.752Z,96208.41
2023-05-01T02:56:59.536Z,96209.69
2023-05-01T02:59:44.539Z,96211.59
2023-05-01T03:02:29.909Z,96211.22
2023-05-01T03:05:15.717Z,96212.50
2023-05-01T03:08:00.731Z,96208.91
2023-05-01T03:10:46.063Z,96211.16
2023-05-01T03:13:31.244Z,96202.63
2023-05-01T03:16:16.521Z,96214.75
2023-05-01T03:19:01.945Z,96209.78
2023-05-01T03:21:47.223Z,96205.94
2023-05-01T03:24:32.646Z,96211.16
2023-05-01T03:27:17.984Z,96206.63
2023-05-01T03:30:04.636Z,96200.19
2023-05-01T03:32:51.733Z,96204.88
2023-05-01T03:35:36.898Z,96214.78
2023-05-01T03:38:22.937Z,96207.69
2023-05-01T03:41:08.610Z,96214.84
2023-05-01T03:43:53.821Z,96212.09
2023-05-01T03:46:39.154Z,96214.56
2023-05-01T03:49:24.644Z,96216.19
2023-05-01T03:52:11.410Z,96213.72
2023-05-01T03:54:57.209Z,96210.31
2023-05-01T03:57:43.106Z,96206.03
2023-05-01T04:00:28.449Z,96207.03
2023-05-01T04:03:13.499Z,96206.03
2023-05-01T04:05:59.613Z,96201.34
2023-05-01T04:08:45.236Z,96202.19
2023-05-01T04:11:30.541Z,96196.66
2023-05-01T04:14:15.973Z,96198.03
2023-05-01T04:17:01.236Z,96193.03
2023-05-01T04:19:48.120Z,96189.53
2023-05-01T04:22:33.669Z,96195.13
2023-05-01T04:25:18.725Z,96195.50
2023-05-01T04:28:04.747Z,96193.44
2023-05-01T04:30:50.090Z,96198.91
2023-05-01T04:33:35.521Z,96193.91
2023-05-01T04:36:21.052Z,96198.03
2023-05-01T04:39:06.157Z,96196.09
2023-05-01T04:41:51.373Z,96195.50
2023-05-01T04:44:37.416Z,96194.59
2023-05-01T04:47:22.544Z,96187.13
2023-05-01T04:50:08.389Z,96194.66
2023-05-01T04:52:53.914Z,96189.13
2023-05-01T04:55:38.932Z,96186.44
2023-05-01T04:58:24.324Z,96189.94
2023-05-01T05:01:10.057Z,96195.38
2023-05-01T05:03:55.099Z,96188.22
2023-05-01T05:06:40.663Z,96193.97
2023-05-01T05:09:25.614Z,96187.59
2023-05-01T05:12:11.190Z,96176.16
2023-05-01T05:14:56.872Z,96177.34
2023-05-01T05:17:42.198Z,96182.47
2023-05-01T05:20:27.458Z,96175.50
2023-05-01T05:23:12.793Z,96178.97
2023-05-01T05:26:01.327Z,96176.72
2023-05-01T05:28:46.512Z,96176.09
2023-05-01T05:31:31.497Z,96175.47
2023-05-01T05:34:17.464Z,96173.50
2023-05-01T05:37:02.463Z,96171.09
2023-05-01T05:39:47.645Z,96174.06
2023-05-01T05:42:32.901Z,96173.09
2023-05-01T05:45:17.934Z,96165.13
2023-05-01T05:48:03.700Z,96171.06
2023-05-01T05:50:51.069Z,96176.16
2023-05-01T05:53:36.223Z,96171.59
2023-05-01T05:56:21.837Z,96163.75
2023-05-01T05:59:07.453Z,96168.38
2023-05-01T06:01:52.667Z,96170.69
2023-05-01T06:04:37.920Z,96161.31
2023-05-01T06:07:23.557Z,96157.56
2023-05-01T06:10:09.150Z,96160.06
2023-05-01T06:13:13.488Z,96159.88
2023-05-01T06:16:00.618Z,96159.53
2023-05-01T06:18:46.064Z,96153.31
2023-05-01T06:21:32.535Z,96151.13
2023-05-01T06:24:17.930Z,96154.56
2023-05-01T06:27:03.443Z,96157.50
2023-05-01T06:29:48.639Z,96148.91
2023-05-01T06:32:33.991Z,96146.88
2023-05-01T06:35:19.291Z,96154.38
2023-05-01T06:38:04.572Z,96151.38
2023-05-01T06:40:49.893Z,96150.13
2023-05-01T06:43:35.110Z,96141.31
2023-05-01T06:46:20.496Z,96151.06
2023-05-01T06:49:06.965Z,96145.31
2023-05-01T06:51:52.274Z,96153.75
2023-05-01T06:54:37.536Z,96149.59
2023-05-01T06:57:22.854Z,96142.44
2023-05-01T07:00:10.671Z,96140.28
2023-05-01T07:02:56.130Z,96149.72
2023-05-01T07:05:41.728Z,96141.94
2023-05-01T07:08:28.208Z,96140.53
2023-05-01T07:11:13.599Z,96138.91
2023-05-01T07:13:59.242Z,96140.44
2023-05-01T07:16:44.615Z,96134.78
2023-05-01T07:19:29.613Z,96141.69
2023-05-01T07:22:14.824Z,96136.91
2023-05-01T07:25:01.315Z,96142.88
2023-05-01T07:27:46.588Z,96140.34
2023-05-01T07:30:33.168Z,96140.97
2023-05-01T07:33:18.685Z,96151.06
2023-05-01T07:36:04.773Z,96136.88
2023-05-01T07:38:50.057Z,96138.63
2023-05-01T07:41:35.228Z,96132.91
2023-05-01T07:44:21.001Z,96141.28
2023-05-01T07:47:06.441Z,96142.94
2023-05-01T07:49:51.691Z,96147.63
2023-05-01T07:52:37.692Z,96142.56
2023-05-01T07:55:24.235Z,96142.00
2023-05-01T07:58:09.330Z,96139.59
2023-05-01T08:00:54.625Z,96139.44
2023-05-01T08:03:40.073Z,96134.16
2023-05-01T08:06:25.379Z,96139.66
2023-05-01T08:09:10.919Z,96134.19
2023-05-01T08:11:55.909Z,96133.19
2023-05-01T08:14:41.259Z,96141.13
2023-05-01T08:17:26.644Z,96129.31
2023-05-01T08:20:12.604Z,96130.75
2023-05-01T08:22:57.623Z,96125.41
2023-05-01T08:25:43.417Z,96128.25
2023-05-01T08:28:28.795Z,96127.03
2023-05-01T08:31:14.655Z,96134.78
2023-05-01T08:33:59.952Z,96133.50
2023-05-01T08:36:45.233Z,96129.41
2023-05-01T08:39:31.038Z,96126.56
2023-05-01T08:42:17.270Z,96126.88
2023-05-01T08:45:04.413Z,96129.31
2023-05-01T08:47:50.183Z,96122.34
2023-05-01T08:50:38.832Z,96123.31
2023-05-01T08:53:26.104Z,96121.84
2023-05-01T08:56:13.819Z,96124.06
2023-05-01T08:59:01.148Z,96117.25
2023-05-01T09:01:47.411Z,96119.69
2023-05-01T09:04:34.117Z,96121.91
2023-05-01T09:07:19.555Z,96111.88
2023-05-01T09:10:05.465Z,96115.91
2023-05-01T09:12:57.648Z,96115.22
2023-05-01T09:15:42.862Z,96116.00
2023-05-01T09:18:28.272Z,96112.00
2023-05-01T09:21:13.840Z,96107.47
2023-05-01T09:23:58.851Z,96100.84
2023-05-01T09:26:44.806Z,96107.69
2023-05-01T09:29:46.674Z,96098.66
2023-05-01T09:32:31.711Z,96101.03
2023-05-01T09:35:18.028Z,96095.28
2023-05-01T09:38:04.092Z,96094.56
2023-05-01T09:40:49.557Z,96093.03
2023-05-01T09:43:34.672Z,96094.78
2023-05-01T09:46:20.698Z,96086.16
2023-05-01T09:49:05.806Z,96093.63
2023-05-01T09:51:51.191Z,96094.16
2023-05-01T09:54:36.744Z,96091.19
2023-05-01T09:57:36.036Z,96087.19
2023-05-01T10:00:22.384Z,96083.75
2023-05-01T10:03:14.013Z,96070.72
2023-05-01T10:06:02.043Z,96073.38
2023-05-01T10:08:49.021Z,96070.78
2023-05-01T10:11:48.549Z,96066.97
2023-05-01T10:14:38.608Z,96063.63
2023-05-01T10:17:24.173Z,96053.13
2023-05-01T10:20:13.681Z,96057.34
2023-05-01T10:22:59.746Z,96049.13
2023-05-01T10:25:45.206Z,96048.09
2023-05-01T10:28:31.567Z,96051.22
2023-05-01T10:31:17.079Z,96044.50
2023-05-01T10:34:02.390Z,96038.25
2023-05-01T10:36:54.943Z,96037.88
2023-05-01T10:39:40.122Z,96031.59
2023-05-01T10:42:26.365Z,96029.38
2023-05-01T10:45:30.983Z,96031.47
2023-05-01T10:48:44.779Z,96024.41
2023-05-01T10:51:29.852Z,96024.72
2023-05-01T10:54:15.131Z,96023.66
2023-05-01T10:57:02.926Z,96019.81
2023-05-01T11:00:01.635Z,96015.03
2023-05-01T11:02:46.948Z,96012.56
2023-05-01T11:06:00.585Z,96015.28
2023-05-01T11:08:47.332Z,96008.63
2023-05-01T11:11:32.482Z,96005.53
2023-05-01T11:14:18.174Z,96002.38
2023-05-01T11:17:03.585Z,96000.19
2023-05-01T11:19:49.084Z,95998.53
2023-05-01T11:22:36.076Z,95997.63
2023-05-01T11:25:23.563Z,95991.44
2023-05-01T11:28:10.124Z,95993.28
2023-05-01T11:30:55.803Z,95986.50
2023-05-01T11:33:41.229Z,95981.06
2023-05-01T11:36:28.392Z,95984.31
2023-05-01T11:39:19.347Z,95981.31
2023-05-01T11:42:10.824Z,95967.50
2023-05-01T11:45:11.155Z,95968.22
2023-05-01T11:47:57.047Z,95975.47
2023-05-01T11:50:42.334Z,95970.56
2023-05-01T11:53:27.498Z,95975.91
2023-05-01T11:56:27.223Z,95968.69
2023-05-01T11:59:17.173Z,95974.44
2023-05-01T12:02:02.703Z,95967.81
2023-05-01T12:04:48.108Z,95966.94
2023-05-01T12:07:36.796Z,95958.19
2023-05-01T12:10:22.125Z,95953.31
2023-05-01T12:13:09.023Z,95960.66
2023-05-01T12:15:55.790Z,95946.34
2023-05-01T12:18:43.255Z,95955.75
2023-05-01T12:21:28.789Z,95950.66
2023-05-01T12:24:16.477Z,95932.88
2023-05-01T12:27:01.921Z,95938.34
2023-05-01T12:29:49.887Z,95944.78
2023-05-01T12:32:35.160Z,95930.88
2023-05-01T12:35:21.123Z,95929.34
2023-05-01T12:38:18.250Z,95924.28
2023-05-01T12:41:07.128Z,95925.66
2023-05-01T12:43:52.416Z,95920.22
2023-05-01T12:46:37.468Z,95913.78
2023-05-01T12:49:23.847Z,95910.03
2023-05-01T12:52:09.290Z,95914.28
2023-05-01T12:55:02.774Z,95910.84
2023-05-01T12:57:54.982Z,95914.72
2023-05-01T13:00:52.270Z,95918.59
2023-05-01T13:03:43.849Z,95909.72
2023-05-01T13:06:35.972Z,95900.91
2023-05-01T13:09:27.354Z,95901.97
2023-05-01T13:12:13.122Z,95901.53
2023-05-01T13:14:58.652Z,95895.50
2023-05-01T13:17:44.293Z,95890.41
2023-05-01T13:20:29.407Z,95897.41
2023-05-01T13:23:15.572Z,95897.97
2023-05-01T13:26:00.994Z,95894.59
2023-05-01T13:28:47.121Z,95894.91
2023-05-01T13:31:32.655Z,95891.19
2023-05-01T13:34:24.614Z,95883.16
2023-05-01T13:37:14.002Z,95878.50
2023-05-01T13:39:59.837Z,95883.09
2023-05-01T13:42:46.056Z,95883.13
2023-05-01T13:45:32.018Z,95878.47
2023-05-01T13:48:17.715Z,95867.44
2023-05-01T13:51:03.276Z,95865.31
2023-05-01T13:53:48.933Z,95869.16
2023-05-01T13:56:38.962Z,95871.56
2023-05-01T13:59:24.514Z,95868.09
2023-05-01T14:02:13.324Z,95872.47
2023-05-01T14:05:00.775Z,95870.34
2023-05-01T14:07:55.572Z,95860.66
2023-05-01T14:10:40.944Z,95865.81
2023-05-01T14:13:27.146Z,95851.56
2023-05-01T14:16:22.162Z,95852.91
2023-05-01T14:19:07.707Z,95850.50
2023-05-01T14:21:53.151Z,95855.34
2023-05-01T14:24:41.272Z,95853.72
2023-05-01T14:27:26.362Z,95845.16
2023-05-01T14:30:20.805Z,95851.91
2023-05-01T14:33:07.980Z,95843.25
2023-05-01T14:35:53.881Z,95850.53
2023-05-01T14:38:40.478Z,95852.13
2023-05-01T14:41:25.833Z,95847.81
2023-05-01T14:44:13.993Z,95850.22
2023-05-01T14:47:00.371Z,95849.97
2023-05-01T14:49:52.138Z,95852.38
2023-05-01T14:52:38.208Z,95847.28
2023-05-01T14:55:31.109Z,95846.19
2023-05-01T14:58:16.468Z,95847.53
2023-05-01T15:01:02.638Z,95849.69
2023-05-01T15:03:47.843Z,95859.63
2023-05-01T15:06:34.162Z,95845.66
2023-05-01T15:09:19.346Z,95844.59
2023-05-01T15:12:07.149Z,95848.34
2023-05-01T15:14:52.663Z,95836.81
2023-05-01T15:17:37.949Z,95843.53
2023-05-01T15:20:23.375Z,95834.66
2023-05-01T15:23:08.689Z,95838.47
2023-05-01T15:25:53.851Z,95841.41
2023-05-01T15:28:38.924Z,95830.41
2023-05-01T15:31:24.212Z,95831.22
2023-05-01T15:34:09.591Z,95829.06
2023-05-01T15:36:54.825Z,95826.09
2023-05-01T15:39:40.450Z,95826.91
2023-05-01T15:42:26.265Z,95820.47
2023-05-01T15:45:11.626Z,95816.94
2023-05-01T15:47:56.753Z,95826.06
2023-05-01T15:50:42.048Z,95816.66
2023-05-01T15:53:27.803Z,95822.03
2023-05-01T15:56:12.879Z,95814.75
2023-05-01T15:59:02.136Z,95818.78
2023-05-01T16:01:47.655Z,95814.22
2023-05-01T16:04:33.000Z,95812.34
2023-05-01T16:07:18.219Z,95816.38
2023-05-01T16:10:04.820Z,95814.50
2023-05-01T16:12:53.120Z,95811.53
2023-05-01T16:15:38.231Z,95815.56
2023-05-01T16:18:25.011Z,95813.41
2023-05-01T16:21:11.481Z,95817.72
2023-05-01T16:23:57.469Z,95814.47
2023-05-01T16:26:42.533Z,95803.94
2023-05-01T16:29:27.941Z,95802.84
2023-05-01T16:32:16.772Z,95797.75
2023-05-01T16:35:03.781Z,95810.34
2023-05-01T16:37:48.702Z,95812.75
2023-05-01T16:40:36.837Z,95805.22
2023-05-01T16:43:22.415Z,95808.03
2023-05-01T16:46:07.663Z,95808.81
2023-05-01T16:48:53.174Z,95812.56
2023-05-01T16:51:39.414Z,95807.94
2023-05-01T16:54:31.996Z,95808.50
2023-05-01T16:57:17.262Z,95812.28
2023-05-01T17:00:03.344Z,95817.91
2023-05-01T17:02:50.219Z,95815.69
2023-05-01T17:05:35.724Z,95809.19
2023-05-01T17:08:21.062Z,95804.78
2023-05-01T17:11:07.343Z,95806.31
2023-05-01T17:13:52.682Z,95811.59
2023-05-01T17:16:37.643Z,95810.00
2023-05-01T17:19:22.819Z,95807.84
2023-05-01T17:22:08.048Z,95804.53
2023-05-01T17:24:53.314Z,95808.72
2023-05-01T17:27:38.674Z,95807.75
2023-05-01T17:30:24.195Z,95809.75
2023-05-01T17:33:09.510Z,95814.41
2023-05-01T17:35:55.314Z,95809.97
2023-05-01T17:38:41.324Z,95816.66
2023-05-01T17:41:26.876Z,95815.66
2023-05-01T17:44:12.442Z,95817.66
2023-05-01T17:46:57.755Z,95815.84
2023-05-01T17:49:43.014Z,95825.13
2023-05-01T17:52:28.333Z,95823.19
2023-05-01T17:55:17.063Z,95830.31
2023-05-01T17:58:03.423Z,95831.59
2023-05-01T18:00:48.991Z,95834.03
2023-05-01T18:03:34.154Z,95831.53
2023-05-01T18:06:19.436Z,95831.88
2023-05-01T18:09:04.699Z,95831.72
2023-05-01T18:11:50.097Z,95836.59
2023-05-01T18:14:35.863Z,95836.53
2023-05-01T18:17:24.214Z,95838.88
2023-05-01T18:20:10.082Z,95847.34
2023-05-01T18:22:55.225Z,95843.88
2023-05-01T18:25:40.350Z,95845.34
2023-05-01T18:28:25.791Z,95850.56
2023-05-01T18:31:10.829Z,95847.50
2023-05-01T18:33:56.366Z,95853.00
2023-05-01T18:36:41.830Z,95860.13
2023-05-01T18:39:27.147Z,95857.06
2023-05-01T18:42:12.405Z,95873.22
2023-05-01T18:44:57.831Z,95872.56
2023-05-01T18:47:43.083Z,95872.16
2023-05-01T18:50:29.779Z,95865.78
2023-05-01T18:53:15.171Z,95877.38
2023-05-01T18:56:00.824Z,95874.25
2023-05-01T18:58:46.508Z,95877.06
2023-05-01T19:01:32.760Z,95885.31
2023-05-01T19:04:19.905Z,95879.75
2023-05-01T19:07:06.013Z,95885.19
2023-05-01T19:09:51.161Z,95878.28
2023-05-01T19:12:37.626Z,95881.03
2023-05-01T19:15:23.233Z,95879.28
2023-05-01T19:18:09.309Z,95875.69
2023-05-01T19:20:55.167Z,95881.84
2023-05-01T19:23:41.432Z,95877.63
2023-05-01T19:26:29.231Z,95875.28
2023-05-01T19:29:15.221Z,95872.28
2023-05-01T19:32:01.298Z,95873.56
2023-05-01T19:34:47.236Z,95873.59
2023-05-01T19:37:32.608Z,95870.94
2023-05-01T19:40:18.662Z,95866.75
2023-05-01T19:43:03.731Z,95872.84
2023-05-01T19:45:49.262Z,95869.41
2023-05-01T19:48:34.554Z,95879.41
2023-05-01T19:51:20.108Z,95874.16
2023-05-01T19:54:07.171Z,95873.72
2023-05-01T19:56:52.909Z,95875.34
2023-05-01T19:59:40.283Z,95878.22
2023-05-01T20:02:25.911Z,95872.72
2023-05-01T20:05:13.113Z,95879.41
2023-05-01T20:08:00.954Z,95874.91
2023-05-01T20:10:46.690Z,95871.84
2023-05-01T20:13:32.133Z,95871.66
2023-05-01T20:16:18.855Z,95862.72
2023-05-01T20:19:04.651Z,95854.53
2023-05-01T20:21:49.880Z,95856.75
2023-05-01T20:24:38.440Z,95854.50
2023-05-01T20:27:24.107Z,95859.56
2023-05-01T20:30:11.213Z,95861.13
2023-05-01T20:32:57.750Z,95857.00
2023-05-01T20:35:43.549Z,95857.59
2023-05-01T20:38:28.696Z,95856.53
2023-05-01T20:41:15.068Z,95860.34
2023-05-01T20:44:01.091Z,95870.47
2023-05-01T20:46:47.284Z,95876.94
2023-05-01T20:49:33.215Z,95879.72
2023-05-01T20:52:18.530Z,95871.97
2023-05-01T20:55:04.247Z,95879.25
2023-05-01T20:57:49.209Z,95884.69
2023-05-01T21:00:34.480Z,95882.00
2023-05-01T21:03:19.925Z,95879.13
2023-05-01T21:06:04.958Z,95887.63
2023-05-01T21:08:51.030Z,95876.81
2023-05-01T21:11:39.568Z,95883.88
2023-05-01T21:14:24.892Z,95876.09
2023-05-01T21:17:10.878Z,95874.41
2023-05-01T21:19:56.228Z,95887.34
2023-05-01T21:22:42.769Z,95883.66
2023-05-01T21:25:29.965Z,95881.16
2023-05-01T21:28:15.743Z,95877.44
2023-05-01T21:31:00.812Z,95871.34
2023-05-01T21:33:46.428Z,95877.56
2023-05-01T21:36:32.142Z,95878.13
2023-05-01T21:39:17.932Z,95879.91
2023-05-01T21:42:03.285Z,95883.91
2023-05-01T21:44:48.648Z,95876.91
2023-05-01T21:47:39.145Z,95891.66
2023-05-01T21:50:24.676Z,95890.78
2023-05-01T21:53:09.921Z,95897.16
2023-05-01T21:55:55.357Z,95893.69
2023-05-01T21:58:40.721Z,95888.22
2023-05-01T22:01:25.999Z,95891.25
2023-05-01T22:04:17.212Z,95895.81
2023-05-01T22:07:02.500Z,95892.38
2023-05-01T22:09:47.829Z,95891.47
2023-05-01T22:12:33.009Z,95895.91
2023-05-01T22:15:18.460Z,95895.66
2023-05-01T22:18:03.759Z,95895.56
2023-05-01T22:20:48.957Z,95900.28
2023-05-01T22:23:34.342Z,95905.25
2023-05-01T22:26:19.631Z,95911.88
2023-05-01T22:29:04.892Z,95905.97
2023-05-01T22:31:50.177Z,95908.53
2023-05-01T22:34:35.359Z,95905.63
2023-05-01T22:37:20.858Z,95899.25
2023-05-01T22:40:06.878Z,95899.44
2023-05-01T22:42:51.854Z,95899.72
2023-05-01T22:45:37.049Z,95903.69
2023-05-01T22:48:22.400Z,95900.78
2023-05-01T22:51:07.857Z,95904.94
2023-05-01T22:53:53.115Z,95905.84
2023-05-01T22:56:38.624Z,95902.31
2023-05-01T22:59:24.071Z,95902.31
2023-05-01T23:02:10.094Z,95885.06
2023-05-01T23:04:55.435Z,95892.66
2023-05-01T23:07:40.951Z,95883.34
2023-05-01T23:10:28.265Z,95878.63
2023-05-01T23:13:23.487Z,95885.69
2023-05-01T23:16:08.991Z,95886.56
2023-05-01T23:18:56.001Z,95878.59
2023-05-01T23:21:41.083Z,95890.09
2023-05-01T23:24:34.297Z,95892.91
2023-05-01T23:27:20.071Z,95891.44
2023-05-01T23:30:06.022Z,95881.94
2023-05-01T23:32:51.508Z,95887.19
2023-05-01T23:35:36.777Z,95888.34
2023-05-01T23:38:22.203Z,95882.81
2023-05-01T23:41:08.268Z,95884.28
2023-05-01T23:43:53.565Z,95884.09
2023-05-01T23:46:39.233Z,95875.09
2023-05-01T23:49:24.410Z,95884.66
2023-05-01T23:52:09.673Z,95881.75
2023-05-01T23:54:55.150Z,95881.66
2023-05-01T23:57:40.350Z,95889.69
